Aérodrome :
LOGIN :

S'inscrire | Disclaimer

   EN    FR    IT 

 










Légende :    VFR   VFR Marginal   IFR   IFR Intensif   IFR Très Intensif
Visi : 
Plafond : 
>= 8 km
>= 3000ft
5 à 8 km
1000 à 3000 ft
1500m à 5 km
500 à 1000 ft
800 à 1500m
200 à 500 ft
< 800m
< 200 ft
Symboles :   Orages  Brouillard  Fortes neiges  Fortes précipitations  Vent > 20 kt
SIGMETs :   Divers  Orages  Givrage  Turbulence  Onde Orograph.  Cendres Volcan.






- Altitude de l'aérodrome : 1000 ft
- Code IATA : PEV


LHPP - Pécs Pogany

DERNIER METAR :
  • 161415Z 33010KT 9999 FEW016 FEW016TCU BKN083 M01/M05 Q1019

METARs EXPIRÉS :
  • 161345Z 31010KT 9999 FEW016 FEW016TCU BKN083 M02/M03 Q1019
  • 161315Z 30008KT 9999 FEW016 FEW016TCU M01/M04 Q1019
  • 161245Z 32007KT 6000 FEW016 FEW016TCU M02/M03 Q1019
  • 161238Z 32007KT 6000 SCT016 SCT083 M02/M03 Q1021
  • 161215Z 32007KT 3000 -SN BR FEW016 BKN020 M02/M03 Q1020 RESN
  • 161149Z 34007KT 2000 SHSN BKN016 M01/M03 Q1022
  • 161115Z 35008KT 7000 SCT013 BKN200 M01/M03 Q1020 RESHSN

TAF TAF LHPP
Valide du 16 à 15h jusqu'au 17 à 00h UTC


161415Z 1615/1624 30007KT 8000 SCT025 SCT080



MET'MAP, la Météo Aéronautique d'un coup d'oeil ! - Copyright ORBIFLY Décembre 2007 - Disclaimer

ORBIFLY MET'MAP TEAM :

Programmation & Développement : Alexandra Zaïnal
Sur une idée originale de : Baudouin d'Aumeries
Assistance à la programmation : Marc-Olivier Méhu
Soutien technique & logistique : Manuel Goepfert

Contact : metmap@orbifly.com




SOURCES & CREDITS :

   NOAA